Time;durP1;ratioP1;P1;durP2;ratioP2;P2;SDS_P1;SDS_P2;PMS_P1;PMS_P2;Temp;Humidity;BMP_temperature;BMP_pressure;BME280_temperature;BME280_humidity;BME280_pressure;Samples;Min_cycle;Max_cycle;Signal;HPM_P1;HPM_P2
2023/12/02 00:00:39;;;;;;;;;;;;;;;;;;;;;
2023/12/02 00:06:41;;;;;;;76.30;34.80;;;;;;;-4.77;100.00;99724.64;216547;1285;141165;-79
2023/12/02 00:12:42;;;;;;;92.00;38.40;;;;;;;-4.85;100.00;99718.81;212914;1289;139057;-77
2023/12/02 00:18:43;;;;;;;87.80;38.90;;;;;;;-4.86;100.00;99718.30;212297;1286;140828;-77
2023/12/02 00:24:44;;;;;;;108.20;52.50;;;;;;;-4.84;100.00;99722.02;212923;1286;139069;-78
2023/12/02 00:30:34;;;;;;;;;;;;;;;;;;;;;
2023/12/02 00:36:34;;;;;;;94.40;43.10;;;;;;;-4.89;100.00;99723.83;212335;1289;141046;-77
2023/12/02 00:42:36;;;;;;;113.30;46.50;;;;;;;-4.98;100.00;99715.27;213233;1292;139611;-78
2023/12/02 00:48:37;;;;;;;108.30;46.20;;;;;;;-5.04;100.00;99708.29;212954;1289;141487;-78
2023/12/02 00:54:35;;;;;;;;;;;;;;;;;;;;;
2023/12/02 01:00:37;;;;;;;105.70;46.30;;;;;;;-5.19;100.00;99709.79;212702;1285;141309;-78
2023/12/02 01:06:38;;;;;;;108.90;47.70;;;;;;;-5.19;100.00;99699.40;212276;1286;140812;-78
2023/12/02 01:12:39;;;;;;;112.20;45.30;;;;;;;-5.20;100.00;99686.70;213005;1290;139293;-78
2023/12/02 01:18:40;;;;;;;111.40;46.90;;;;;;;-5.20;100.00;99700.00;212360;1285;141438;-78
2023/12/02 01:30:44;;;;;;;101.70;45.20;;;;;;;-5.23;100.00;99689.59;213449;1289;140640;-78
2023/12/02 01:36:46;;;;;;;98.80;44.50;;;;;;;-5.26;100.00;99690.55;212875;1291;141450;-78
2023/12/02 01:42:46;;;;;;;102.80;43.00;;;;;;;-5.29;100.00;99694.73;213187;1290;139213;-77
2023/12/02 01:48:47;;;;;;;90.60;39.30;;;;;;;-5.36;100.00;99696.98;212211;1297;141039;-78
2023/12/02 01:54:48;;;;;;;97.60;40.90;;;;;;;-5.47;100.00;99698.63;212850;1289;139078;-77
2023/12/02 02:00:50;;;;;;;91.10;40.30;;;;;;;-5.56;100.00;99716.83;212596;1285;140660;-79
2023/12/02 02:06:36;;;;;;;;;;;;;;;;;;;;;
2023/12/02 02:12:28;;;;;;;106.30;43.30;;;;;;;-5.70;100.00;99716.92;212976;1286;139415;-78
2023/12/02 02:18:27;;;;;;;;;;;;;;;;;;;;;
2023/12/02 02:24:17;;;;;;;;;;;;;;;;;;;;;
2023/12/02 02:30:17;;;;;;;;;;;;;;;;;;;;;
2023/12/02 02:36:21;;;;;;;102.40;43.40;;;;;;;-5.80;100.00;99721.30;212912;1289;139525;-78
2023/12/02 02:42:08;;;;;;;;;;;;;;;;;;;;;
2023/12/02 02:48:10;;;;;;;97.70;42.10;;;;;;;-5.84;100.00;99711.98;212259;1286;140559;-78
2023/12/02 02:53:57;;;;;;;92.80;40.50;;;;;;;-5.85;100.00;99722.98;212782;1286;139127;-78
2023/12/02 02:59:58;;;;;;;84.60;37.10;;;;;;;-5.87;100.00;99722.52;212343;1290;140416;-76
2023/12/02 03:05:59;;;;;;;91.70;39.10;;;;;;;-5.92;100.00;99715.89;212741;1289;139015;-77
2023/12/02 03:12:02;;;;;;;85.00;36.60;;;;;;;-5.96;100.00;99709.23;213379;1291;139196;-77
2023/12/02 03:18:02;;;;;;;90.80;37.60;;;;;;;-6.01;100.00;99697.77;212618;1285;141157;-77
2023/12/02 03:23:52;;;;;;;89.90;34.00;;;;;;;-6.03;100.00;99687.15;212829;1285;139285;-78
2023/12/02 03:29:46;;;;;;;;;;;;;;;;;;;;;
2023/12/02 03:35:49;;;;;;;88.70;34.00;;;;;;;-6.00;100.00;99680.15;212710;1292;139206;-78
2023/12/02 03:41:50;;;;;;;79.10;33.00;;;;;;;-5.99;100.00;99669.05;212795;1289;224021;-77
2023/12/02 03:47:48;;;;;;;;;;;;;;;;;;;;;
2023/12/02 03:53:40;;;;;;;;;;;;;;;;;;;;;
2023/12/02 03:59:44;;;;;;;117.70;46.80;;;;;;;-5.96;100.00;99665.78;212217;1288;142456;-79
2023/12/02 04:05:46;;;;;;;111.80;42.20;;;;;;;-5.97;100.00;99674.27;213159;1290;139224;-78
2023/12/02 04:11:48;;;;;;;107.80;40.20;;;;;;;-6.00;100.00;99679.29;213059;1289;139130;-77
2023/12/02 04:17:47;;;;;;;103.80;39.10;;;;;;;-6.07;100.00;99686.45;212457;1291;140649;-77
2023/12/02 04:29:49;;;;;;;81.70;34.50;;;;;;;-6.12;100.00;99696.64;212572;1290;141078;-78
2023/12/02 04:35:50;;;;;;;80.00;35.20;;;;;;;-6.15;100.00;99701.42;212987;1286;138994;-78
2023/12/02 04:53:53;;;;;;;67.60;31.50;;;;;;;-6.15;100.00;99684.63;213161;1285;138505;-77
2023/12/02 04:59:54;;;;;;;71.00;29.20;;;;;;;-6.16;100.00;99667.97;212366;1291;140711;-78
2023/12/02 05:05:56;;;;;;;71.40;29.30;;;;;;;-6.16;100.00;99655.70;212829;1285;139066;-78
2023/12/02 05:11:56;;;;;;;64.10;28.40;;;;;;;-6.17;100.00;99642.65;212814;1286;139040;-78
2023/12/02 05:17:49;;;;;;;;;;;;;;;;;;;;;
2023/12/02 05:23:51;;;;;;;74.10;28.80;;;;;;;-6.10;100.00;99649.27;213529;1285;138952;-78
2023/12/02 05:29:51;;;;;;;66.30;29.40;;;;;;;-6.05;100.00;99647.01;214203;1291;141410;-78
2023/12/02 05:35:52;;;;;;;67.30;28.20;;;;;;;-6.01;100.00;99648.82;212878;1286;139164;-77
2023/12/02 05:41:52;;;;;;;71.30;30.00;;;;;;;-5.99;100.00;99640.33;213170;1291;139423;-77
2023/12/02 05:47:54;;;;;;;74.50;32.90;;;;;;;-5.96;100.00;99649.25;214323;1286;141313;-77
2023/12/02 05:53:55;;;;;;;76.70;29.90;;;;;;;-5.91;100.00;99660.79;218913;1285;139923;-77
2023/12/02 05:59:46;;;;;;;;;;;;;;;;;;;;;
2023/12/02 06:05:38;;;;;;;67.30;27.00;;;;;;;-5.79;100.00;99672.20;212881;1290;139095;-78
2023/12/02 06:11:40;;;;;;;69.00;27.90;;;;;;;-5.68;100.00;99676.69;214086;1286;139023;-77
2023/12/02 06:17:39;;;;;;;67.80;26.70;;;;;;;-5.62;100.00;99681.80;212377;1286;141334;-79
2023/12/02 06:29:41;;;;;;;58.40;25.70;;;;;;;-5.48;100.00;99691.83;212467;1291;140780;-77
2023/12/02 06:35:43;;;;;;;63.10;25.00;;;;;;;-5.40;100.00;99694.84;212916;1290;139512;-78
2023/12/02 06:41:44;;;;;;;65.00;26.20;;;;;;;-5.33;100.00;99705.77;213735;1286;389444;-78
2023/12/02 06:47:45;;;;;;;63.50;27.00;;;;;;;-5.27;100.00;99718.95;212701;1290;140044;-78
2023/12/02 06:53:46;;;;;;;69.50;26.40;;;;;;;-5.20;100.00;99729.45;212847;1288;139455;-78
2023/12/02 06:59:47;;;;;;;73.50;28.00;;;;;;;-5.14;100.00;99732.16;212613;1286;141065;-77
2023/12/02 07:05:41;;;;;;;72.80;29.60;;;;;;;-5.06;100.00;99735.45;212637;1286;140106;-77
2023/12/02 07:11:42;;;;;;;64.10;24.00;;;;;;;-4.98;100.00;99730.98;213396;1285;139823;-78
2023/12/02 07:23:45;;;;;;;52.90;22.70;;;;;;;-4.85;100.00;99729.77;213225;1285;139012;-78
2023/12/02 07:29:46;;;;;;;63.40;25.30;;;;;;;-4.79;100.00;99726.55;213869;1286;140636;-79
2023/12/02 07:35:32;;;;;;;68.60;28.40;;;;;;;-4.70;100.00;99731.02;214514;1285;139742;-79
2023/12/02 07:47:30;;;;;;;56.00;22.70;;;;;;;-4.49;100.00;99734.20;212464;1289;141452;-79
2023/12/02 07:53:30;;;;;;;62.70;25.20;;;;;;;-4.39;100.00;99739.55;213615;1289;139502;-79
2023/12/02 07:59:24;;;;;;;56.80;23.40;;;;;;;-4.31;100.00;99741.02;213432;1292;140175;-79
2023/12/02 08:05:04;;;;;;;60.20;24.90;;;;;;;-4.25;100.00;99742.14;213541;1289;139656;-76
2023/12/02 08:11:05;;;;;;;59.50;25.30;;;;;;;-4.17;100.00;99744.83;212688;1286;140698;-76
2023/12/02 08:17:07;;;;;;;67.20;25.60;;;;;;;-4.09;100.00;99748.66;212438;1289;141083;-76
2023/12/02 08:23:06;;;;;;;;;;;;;;;;;;;;;
2023/12/02 08:29:01;;;;;;;;;;;;;;;;;;;;;
2023/12/02 08:35:02;;;;;;;73.50;26.30;;;;;;;-3.89;100.00;99766.50;212749;1286;139807;-76
2023/12/02 08:41:02;;;;;;;;;;;;;;;;;;;;;
2023/12/02 08:46:54;;;;;;;57.80;24.00;;;;;;;-3.66;100.00;99774.91;213344;1291;142026;-76
2023/12/02 08:52:57;;;;;;;60.80;24.80;;;;;;;-3.54;100.00;99783.38;212677;1289;139178;-76
2023/12/02 08:58:59;;;;;;;66.90;26.80;;;;;;;-3.46;100.00;99785.84;212735;1291;140959;-76
2023/12/02 09:05:01;;;;;;;68.30;26.10;;;;;;;-3.37;100.00;99797.29;213029;1291;139817;-76
2023/12/02 09:11:00;;;;;;;69.00;26.60;;;;;;;-3.32;100.00;99800.51;212311;1286;139824;-76
2023/12/02 09:16:56;;;;;;;;;;;;;;;;;;;;;
2023/12/02 09:22:38;;;;;;;;;;;;;;;-3.19;100.00;99773.95;213012;1298;139260;-76
2023/12/02 09:28:44;;;;;;;;;;;;;;;;;;;;;
2023/12/02 09:34:43;;;;;;;;;;;;;;;;;;;;;
2023/12/02 09:41:03;;;;;;;72.40;27.60;;;;;;;-2.95;100.00;99773.48;213112;1291;140684;-76
2023/12/02 09:47:17;;;;;;;82.00;30.80;;;;;;;-2.90;100.00;99771.10;208729;1288;5419791;-77
2023/12/02 09:53:39;;;;;;;66.00;29.10;;;;;;;-2.83;100.00;99776.48;213317;1286;139855;-76
2023/12/02 10:05:51;;;;;;;74.30;30.70;;;;;;;-2.65;100.00;99764.52;213372;1289;139954;-76
2023/12/02 10:11:56;;;;;;;;;;;;;;;;;;;;;
2023/12/02 10:17:50;;;;;;;;;;;;;;;;;;;;;
2023/12/02 10:23:58;;;;;;;70.70;27.60;;;;;;;-2.43;100.00;99763.91;212876;1287;139454;-76
2023/12/02 10:30:18;;;;;;;76.00;28.90;;;;;;;-2.40;100.00;99762.07;212634;1299;140859;-75
2023/12/02 10:36:12;;;;;;;;;;;;;;;;;;;;;
2023/12/02 10:42:27;;;;;;;77.40;31.40;;;;;;;-2.30;100.00;99760.95;213890;1291;139072;-76
2023/12/02 10:48:25;;;;;;;;;;;;;;;;;;;;;
2023/12/02 10:54:20;;;;;;;69.50;28.30;;;;;;;-2.17;100.00;99755.55;213371;1291;140832;-77
2023/12/02 11:00:22;;;;;;;81.20;28.70;;;;;;;-2.09;100.00;99752.19;212258;1291;140554;-77
2023/12/02 11:06:23;;;;;;;76.70;29.30;;;;;;;-2.03;100.00;99749.51;212650;1286;140016;-78
2023/12/02 11:12:27;;;;;;;66.30;25.80;;;;;;;-1.99;100.00;99746.20;213017;1291;139002;-77
2023/12/02 11:18:28;;;;;;;77.30;29.20;;;;;;;-1.94;100.00;99744.02;212489;1296;141496;-77
2023/12/02 11:24:56;;;;;;;72.60;27.70;;;;;;;-1.86;100.00;99748.83;213035;1289;139025;-77
2023/12/02 11:30:37;;;;;;;;;;;;;;;-1.78;100.00;99751.35;213582;1289;139811;-77
2023/12/02 11:36:41;;;;;;;;;;;;;;;;;;;;;
2023/12/02 11:42:46;;;;;;;96.40;33.50;;;;;;;-1.77;100.00;99744.63;212994;1289;139066;-77
2023/12/02 11:48:55;;;;;;;;;;;;;;;;;;;;;
2023/12/02 11:54:47;;;;;;;;;;;;;;;;;;;;;
2023/12/02 12:00:43;;;;;;;;;;;;;;;;;;;;;
2023/12/02 12:06:53;;;;;;;;;;;;;;;;;;;;;
2023/12/02 12:12:24;;;;;;;87.90;34.00;;;;;;;-1.58;100.00;99773.33;213117;1294;138912;-77
2023/12/02 12:18:17;;;;;;;;;;;;;;;;;;;;;
2023/12/02 12:24:19;;;;;;;91.60;34.00;;;;;;;-1.58;100.00;99772.75;212992;1290;139501;-78
2023/12/02 12:30:32;;;;;;;90.10;35.40;;;;;;;-1.55;100.00;99757.82;213422;1289;141108;-77
2023/12/02 12:36:30;;;;;;;99.10;35.80;;;;;;;-1.49;100.00;99736.20;212979;1292;141290;-77
2023/12/02 12:42:10;;;;;;;;;;;;;;;-1.46;100.00;99738.75;212952;1289;139673;-77
2023/12/02 12:48:12;;;;;;;84.80;29.50;;;;;;;-1.42;100.00;99745.94;212642;1289;126623;-78
2023/12/02 12:54:02;;;;;;;;;;;;;;;;;;;;;
2023/12/02 13:00:03;;;;;;;;;;;;;;;;;;;;;
2023/12/02 13:06:05;;;;;;;98.20;33.80;;;;;;;-1.37;100.00;99752.49;213002;1298;139616;-77
2023/12/02 13:11:59;;;;;;;;;;;;;;;;;;;;;
2023/12/02 13:17:43;;;;;;;108.60;37.30;;;;;;;-1.40;100.00;99727.80;212334;1289;141143;-77
2023/12/02 13:23:45;;;;;;;111.40;38.30;;;;;;;-1.39;100.00;99739.24;212697;1295;139472;-78
2023/12/02 13:29:38;;;;;;;134.30;47.20;;;;;;;-1.39;100.00;99733.59;212531;1289;144926;-78
2023/12/02 13:35:51;;;;;;;117.00;45.10;;;;;;;-1.40;100.00;99731.08;213154;1286;139237;-78
2023/12/02 13:48:01;;;;;;;;;;;;;;;;;;;;;
2023/12/02 13:54:09;;;;;;;110.70;32.50;;;;;;;-1.47;100.00;99697.27;213075;1288;139260;-77
2023/12/02 14:06:33;;;;;;;78.10;27.10;;;;;;;-1.50;100.00;99701.70;212569;1292;139126;-78
2023/12/02 14:12:41;;;;;;;76.50;25.30;;;;;;;-1.58;100.00;99704.70;213319;1292;139216;-77
2023/12/02 14:18:42;;;;;;;81.60;26.90;;;;;;;-1.61;100.00;99714.92;212312;1289;141336;-78
2023/12/02 14:24:54;;;;;;;63.70;21.70;;;;;;;-1.60;100.00;99720.88;213635;1288;140016;-78
2023/12/02 14:37:05;;;;;;;53.40;18.20;;;;;;;-1.62;100.00;99743.86;212345;1293;140704;-78
2023/12/02 14:43:15;;;;;;;47.00;17.20;;;;;;;-1.60;100.00;99754.09;212347;1291;97536;-78
2023/12/02 14:49:16;;;;;;;47.10;18.10;;;;;;;-1.60;100.00;99760.97;212670;1292;140599;-77
2023/12/02 14:55:06;;;;;;;;;;;;;;;;;;;;;
2023/12/02 15:01:03;;;;;;;;;;;;;;;;;;;;;
2023/12/02 15:07:06;;;;;;;49.20;16.40;;;;;;;-1.55;100.00;99798.65;211800;1290;140781;-78
2023/12/02 15:13:07;;;;;;;55.00;18.00;;;;;;;-1.57;100.00;99804.75;212383;1292;139502;-77
2023/12/02 15:19:09;;;;;;;60.40;20.10;;;;;;;-1.57;100.00;99814.05;212157;1297;141750;-77
2023/12/02 15:25:10;;;;;;;63.00;20.20;;;;;;;-1.56;100.00;99820.36;212351;1292;139619;-77
2023/12/02 15:31:11;;;;;;;59.50;20.60;;;;;;;-1.52;100.00;99840.00;211620;1292;140567;-78
2023/12/02 15:37:05;;;;;;;54.30;20.90;;;;;;;-1.53;100.00;99856.22;211939;1291;140595;-78
2023/12/02 15:43:06;;;;;;;49.10;17.90;;;;;;;-1.53;100.00;99855.89;212759;1291;139193;-78
2023/12/02 15:49:09;;;;;;;49.70;17.80;;;;;;;-1.54;100.00;99864.40;211408;1293;140723;-77
2023/12/02 15:55:09;;;;;;;48.10;17.30;;;;;;;-1.54;100.00;99865.26;211949;1292;139775;-78
2023/12/02 16:07:05;;;;;;;54.90;17.00;;;;;;;-1.53;100.00;99873.71;212391;1287;141323;-77
2023/12/02 16:12:57;;;;;;;59.30;18.40;;;;;;;-1.53;100.00;99876.88;214570;1291;139649;-77
2023/12/02 16:19:01;;;;;;;44.50;16.70;;;;;;;-1.50;100.00;99882.48;211868;1287;140783;-77
2023/12/02 16:24:36;;;;;;;;;;;;;;;;;;;;;
2023/12/02 16:36:33;;;;;;;;;;;;;;;;;;;;;
2023/12/02 16:42:36;;;;;;;55.60;16.80;;;;;;;-1.46;100.00;99904.44;212304;1290;139681;-77
2023/12/02 16:48:43;;;;;;;123.70;58.40;;;;;;;-1.44;100.00;99897.68;212058;1290;140869;-78
2023/12/02 16:54:25;;;;;;;;;;;;;;;-1.42;100.00;99889.98;212338;1290;139569;-78
2023/12/02 17:00:35;;;;;;;72.00;25.00;;;;;;;-1.38;100.00;99893.01;212124;1287;127593;-77
2023/12/02 17:06:40;;;;;;;;;;;;;;;;;;;;;
2023/12/02 17:12:28;;;;;;;;;;;;;;;;;;;;;
2023/12/02 17:18:30;;;;;;;81.50;28.30;;;;;;;-1.31;100.00;99905.70;212033;1287;140574;-77
2023/12/02 17:24:29;;;;;;;;;;;;;;;;;;;;;
2023/12/02 17:30:30;;;;;;;91.00;31.30;;;;;;;-1.30;100.00;99910.47;212039;1297;140563;-78
2023/12/02 17:36:31;;;;;;;90.50;32.20;;;;;;;-1.26;100.00;99909.28;214266;1286;141354;-78
2023/12/02 17:42:25;;;;;;;79.40;26.70;;;;;;;-1.24;100.00;99912.54;212784;1285;139716;-78
2023/12/02 17:48:16;;;;;;;69.70;26.20;;;;;;;-1.22;100.00;99921.88;211994;1288;140929;-78
2023/12/02 17:53:50;;;;;;;91.20;28.40;;;;;;;-1.21;100.00;99924.16;213535;1288;139448;-78
2023/12/02 17:59:50;;;;;;;86.20;26.90;;;;;;;-1.21;100.00;99924.02;213078;1286;143758;-79
2023/12/02 18:05:30;;;;;;;78.10;26.10;;;;;;;-1.18;100.00;99926.53;212562;1288;139228;-78
2023/12/02 18:11:41;;;;;;;87.60;28.80;;;;;;;-1.15;100.00;99930.48;213360;1286;139050;-78
2023/12/02 18:17:33;;;;;;;65.50;24.00;;;;;;;-1.13;100.00;99925.98;212262;1286;140675;-78
2023/12/02 18:23:37;;;;;;;;;;;;;;;;;;;;;
2023/12/02 18:29:25;;;;;;;54.00;20.00;;;;;;;-1.10;100.00;99932.73;212178;1290;141686;-78
2023/12/02 18:34:54;;;;;;;;;;;;;;;;;;;;;
2023/12/02 18:40:47;;;;;;;;;;;;;;;;;;;;;
2023/12/02 18:46:35;;;;;;;65.40;22.30;;;;;;;-1.06;100.00;99959.71;212756;1286;140654;-79
2023/12/02 18:52:29;;;;;;;64.50;24.40;;;;;;;-1.06;100.00;99963.77;212761;1286;139416;-79
2023/12/02 18:58:32;;;;;;;63.20;22.10;;;;;;;-1.07;100.00;99959.63;211915;1294;140928;-78
2023/12/02 19:04:31;;;;;;;67.60;22.60;;;;;;;-1.06;100.00;99959.64;213700;1286;139493;-78
2023/12/02 19:10:33;;;;;;;59.90;20.30;;;;;;;-1.07;100.00;99966.54;211843;1286;141244;-78
2023/12/02 19:16:34;;;;;;;63.20;21.60;;;;;;;-1.09;100.00;99971.82;212353;1286;140779;-79
2023/12/02 19:22:36;;;;;;;74.50;23.10;;;;;;;-1.11;100.00;99975.20;214218;1287;139540;-79
2023/12/02 19:34:31;;;;;;;;;;;;;;;;;;;;;
2023/12/02 19:40:33;;;;;;;87.90;26.20;;;;;;;-1.16;100.00;99990.70;213758;1290;140351;-79
2023/12/02 19:46:35;;;;;;;71.60;25.10;;;;;;;-1.16;100.00;99994.61;213508;1290;140502;-80
2023/12/02 19:52:29;;;;;;;62.50;22.80;;;;;;;-1.18;100.00;99997.42;214565;1286;139372;-79
2023/12/02 19:58:30;;;;;;;71.40;24.90;;;;;;;-1.20;100.00;100007.35;213803;1286;140739;-79
2023/12/02 20:04:21;;;;;;;67.60;25.80;;;;;;;-1.23;100.00;100016.29;212384;1288;139868;-80
2023/12/02 20:16:23;;;;;;;66.40;24.60;;;;;;;-1.30;100.00;100034.26;211925;1286;140741;-80
2023/12/02 20:22:17;;;;;;;71.30;26.90;;;;;;;-1.32;100.00;100048.47;212509;1288;139915;-79
2023/12/02 20:28:29;;;;;;;;;;;;;;;;;;;;;
2023/12/02 20:34:20;;;;;;;63.90;23.50;;;;;;;-1.39;100.00;100054.97;212308;1286;139608;-78
2023/12/02 20:40:06;;;;;;;59.10;23.30;;;;;;;-1.49;100.00;100060.33;212549;1286;141244;-79
2023/12/02 20:45:58;;;;;;;;;;;;;;;;;;;;;
2023/12/02 20:51:56;;;;;;;52.60;23.80;;;;;;;-1.57;100.00;100068.45;212864;1290;139973;-79
2023/12/02 20:57:46;;;;;;;;;;;;;;;;;;;;;
2023/12/02 21:03:46;;;;;;;;;;;;;;;;;;;;;
2023/12/02 21:09:43;;;;;;;54.80;21.20;;;;;;;-1.68;100.00;100089.33;212616;1290;141180;-78
2023/12/02 21:15:34;;;;;;;56.70;21.80;;;;;;;-1.71;100.00;100095.98;212813;1290;139567;-77
2023/12/02 21:21:36;;;;;;;69.80;23.80;;;;;;;-1.75;100.00;100094.83;212612;1290;141226;-77
2023/12/02 21:27:37;;;;;;;59.50;23.10;;;;;;;-1.75;100.00;100099.75;212558;1287;141304;-79
2023/12/02 21:33:30;;;;;;;55.50;21.40;;;;;;;-1.78;100.00;100105.40;212685;1290;139491;-77
2023/12/02 21:39:35;;;;;;;42.90;18.20;;;;;;;-1.81;100.00;100109.17;212476;1289;140979;-77
2023/12/02 21:45:28;;;;;;;;;;;;;;;;;;;;;
